首页
METAR-TAF:

METAR-TAF

机场 :

Roanoke Regional Airport (Woodrum Field)

羅阿諾克, 弗吉尼亚州, 美国

纬度: 37-19-01N, 经度: 079-58-27W, 海拔: 358米

当前天气观测

该预报发布于1小时和6分钟前的22:54 UTC
风速4节,风向东转东南
温度 6°C
湿度 42%
气压 1026 hPa
能見度: 16.1公里
散云层高于4300英尺
阴天层高于10000英尺

METAR: KROA 142254Z 12004KT 10SM SCT043 OVC100 06/M06 A3030 RMK AO2 SLP271 T00561061

时间: 19:00 (00:00 UTC)

预报

该预报发布于20分钟前的23:40 UTC
预报有效从15日的 00点(UTC)到 15日的 24点(UTC)
风速4节,风向多变
能見度: 10公里
多云层高于10000英尺
阴天层高于16000英尺
从 15日的 1200点(UTC)
风速7节,风向
能見度: 10公里
多云层高于20000英尺

TAF: KROA 142340Z 1500/1524 VRB04KT P6SM BKN100 OVC160 FM151200 01007KT P6SM BKN200

超过4000个机场的气象观测和天气预报(METAR&TAF报告)。

可查询的气象台以黄色和红色小点在地图上表示。

将鼠标移到小点上方,可查看气象台名称。

然后点击查看天气观测和预报。

如需切换地图:点击带黑十字的绿色按钮放大地图;点击带横线的绿色按钮缩小地图;或者点击绿色箭头查看邻近地区的地图。


METAR-TAF: